createdAt,value
2023-06-09T00:02:11.979Z,66.93
2023-06-09T00:04:38.781Z,65.81
2023-06-09T00:07:05.486Z,64.97
2023-06-09T00:09:32.172Z,65.62
2023-06-09T00:11:58.726Z,64.18
2023-06-09T00:14:25.312Z,65.63
2023-06-09T00:16:51.925Z,65.69
2023-06-09T00:19:18.651Z,63.29
2023-06-09T00:21:45.268Z,64.51
2023-06-09T00:24:11.919Z,63.65
2023-06-09T00:26:38.579Z,66.44
2023-06-09T00:29:05.257Z,63.84
2023-06-09T00:31:31.802Z,63.62
2023-06-09T00:33:58.375Z,67.37
2023-06-09T00:36:24.891Z,61.01
2023-06-09T00:38:51.587Z,64.99
2023-06-09T00:41:18.189Z,64.47
2023-06-09T00:43:44.760Z,61.22
2023-06-09T00:46:11.350Z,62.89
2023-06-09T00:48:38.026Z,65.20
2023-06-09T00:51:04.613Z,62.04
2023-06-09T00:53:31.231Z,62.15
2023-06-09T00:55:57.795Z,66.31
2023-06-09T00:58:24.364Z,65.67
2023-06-09T01:00:50.904Z,64.27
2023-06-09T01:03:17.535Z,63.78
2023-06-09T01:05:44.111Z,63.17
2023-06-09T01:08:10.747Z,66.41
2023-06-09T01:10:37.298Z,65.49
2023-06-09T01:13:03.821Z,62.17
2023-06-09T01:15:30.402Z,62.65
2023-06-09T01:17:56.997Z,62.98
2023-06-09T01:20:23.526Z,64.51
2023-06-09T01:22:50.121Z,61.91
2023-06-09T01:25:16.668Z,65.33
2023-06-09T01:27:43.237Z,62.56
2023-06-09T01:30:09.853Z,63.24
2023-06-09T01:32:36.539Z,61.93
2023-06-09T01:35:03.549Z,64.40
2023-06-09T01:37:30.181Z,64.11
2023-06-09T01:39:56.731Z,63.59
2023-06-09T01:42:23.391Z,63.01
2023-06-09T01:44:49.921Z,63.57
2023-06-09T01:47:16.442Z,64.76
2023-06-09T01:49:43.050Z,63.25
2023-06-09T01:52:09.579Z,63.25
2023-06-09T01:54:36.240Z,62.86
2023-06-09T01:57:02.847Z,63.17
2023-06-09T01:59:29.367Z,66.28
2023-06-09T02:01:55.891Z,66.63
2023-06-09T02:04:22.475Z,65.94
2023-06-09T02:06:48.940Z,66.03
2023-06-09T02:09:15.420Z,62.22
2023-06-09T02:11:41.956Z,65.29
2023-06-09T02:14:08.426Z,67.54
2023-06-09T02:16:35.020Z,64.88
2023-06-09T02:19:01.674Z,66.01
2023-06-09T02:21:28.220Z,66.76
2023-06-09T02:23:54.765Z,66.81
2023-06-09T02:26:21.274Z,65.00
2023-06-09T02:28:47.779Z,65.32
2023-06-09T02:31:14.304Z,65.80
2023-06-09T02:33:40.870Z,64.85
2023-06-09T02:36:07.539Z,64.97
2023-06-09T02:38:34.061Z,65.32
2023-06-09T02:41:00.573Z,67.08
2023-06-09T02:43:27.114Z,64.91
2023-06-09T02:45:53.688Z,63.37
2023-06-09T02:48:20.238Z,64.20
2023-06-09T02:50:46.789Z,63.52
2023-06-09T02:53:13.326Z,64.45
2023-06-09T02:55:39.872Z,68.54
2023-06-09T02:58:06.426Z,64.54
2023-06-09T03:00:34.681Z,64.77
2023-06-09T03:03:03.230Z,64.57
2023-06-09T03:05:29.984Z,63.63
2023-06-09T03:07:56.532Z,66.37
2023-06-09T03:10:23.043Z,64.55
2023-06-09T03:12:49.612Z,64.50
2023-06-09T03:15:16.212Z,64.40
2023-06-09T03:17:42.941Z,65.53
2023-06-09T03:20:09.599Z,63.98
2023-06-09T03:22:36.173Z,66.23
2023-06-09T03:25:02.740Z,65.71
2023-06-09T03:27:29.363Z,65.01
2023-06-09T03:29:55.941Z,64.58
2023-06-09T03:32:22.547Z,64.48
2023-06-09T03:34:49.056Z,64.60
2023-06-09T03:37:15.678Z,65.70
2023-06-09T03:39:42.475Z,63.96
2023-06-09T03:42:11.555Z,64.84
2023-06-09T03:44:38.130Z,65.25
2023-06-09T03:47:04.797Z,63.05
2023-06-09T03:49:34.498Z,63.10
2023-06-09T03:52:00.971Z,65.06
2023-06-09T03:54:27.493Z,63.69
2023-06-09T03:56:53.967Z,66.43
2023-06-09T03:59:20.565Z,63.50
2023-06-09T04:01:47.176Z,65.07
2023-06-09T04:04:13.773Z,65.97
2023-06-09T04:06:40.534Z,65.77
2023-06-09T04:09:07.113Z,69.33
2023-06-09T04:11:33.738Z,68.38
2023-06-09T04:14:00.351Z,68.41
2023-06-09T04:16:27.061Z,69.28
2023-06-09T04:18:53.723Z,67.73
2023-06-09T04:21:20.266Z,65.18
2023-06-09T04:23:46.843Z,66.99
2023-06-09T04:26:13.465Z,70.08
2023-06-09T04:28:40.050Z,70.24
2023-06-09T04:31:06.581Z,69.94
2023-06-09T04:33:33.154Z,69.54
2023-06-09T04:35:59.853Z,73.06
2023-06-09T04:38:26.590Z,69.26
2023-06-09T04:40:53.185Z,70.66
2023-06-09T04:43:19.719Z,69.64
2023-06-09T04:45:46.272Z,69.81
2023-06-09T04:48:12.956Z,69.77
2023-06-09T04:50:39.569Z,68.21
2023-06-09T04:53:06.136Z,70.39
2023-06-09T04:55:32.782Z,65.88
2023-06-09T04:57:59.299Z,70.27
2023-06-09T05:00:25.925Z,68.02
2023-06-09T05:02:52.644Z,70.35
2023-06-09T05:05:19.320Z,67.73
2023-06-09T05:07:45.984Z,69.19
2023-06-09T05:10:12.610Z,71.04
2023-06-09T05:12:39.127Z,67.61
2023-06-09T05:15:05.634Z,68.18
2023-06-09T05:17:32.168Z,67.61
2023-06-09T05:19:58.793Z,67.23
2023-06-09T05:22:25.286Z,67.34
2023-06-09T05:24:51.886Z,65.66
2023-06-09T05:27:18.494Z,67.52
2023-06-09T05:29:45.115Z,69.77
2023-06-09T05:32:11.695Z,70.30
2023-06-09T05:34:38.309Z,67.44
2023-06-09T05:37:04.867Z,67.28
2023-06-09T05:39:34.419Z,66.39
2023-06-09T05:42:00.994Z,63.74
2023-06-09T05:44:27.491Z,66.62
2023-06-09T05:46:54.072Z,66.31
2023-06-09T05:49:20.630Z,64.57
2023-06-09T05:51:47.336Z,64.65
2023-06-09T05:54:13.860Z,65.19
2023-06-09T05:56:42.293Z,64.55
2023-06-09T05:59:09.668Z,65.12
2023-06-09T06:01:36.513Z,66.30
2023-06-09T06:04:03.234Z,66.53
2023-06-09T06:06:29.944Z,67.26
2023-06-09T06:08:56.538Z,65.78
2023-06-09T06:11:23.153Z,65.32
2023-06-09T06:13:50.042Z,67.22
2023-06-09T06:16:16.761Z,66.87
2023-06-09T06:18:43.343Z,64.98
2023-06-09T06:21:09.914Z,63.02
2023-06-09T06:23:36.533Z,65.22
2023-06-09T06:26:05.943Z,64.57
2023-06-09T06:28:32.481Z,62.21
2023-06-09T06:30:59.159Z,63.75
2023-06-09T06:33:25.765Z,60.00
2023-06-09T06:35:52.282Z,60.78
2023-06-09T06:38:18.882Z,62.35
2023-06-09T06:40:45.522Z,62.16
2023-06-09T06:43:12.092Z,63.79
2023-06-09T06:45:38.634Z,61.22
2023-06-09T06:48:05.282Z,61.61
2023-06-09T06:50:31.883Z,60.09
2023-06-09T06:52:58.440Z,58.33
2023-06-09T06:55:25.063Z,59.33
2023-06-09T06:57:51.738Z,59.12
2023-06-09T16:32:53.074Z,61.80
2023-06-09T16:35:19.733Z,60.34
2023-06-09T16:37:46.343Z,63.75
2023-06-09T16:40:12.959Z,63.13
2023-06-09T16:42:42.698Z,63.96
2023-06-09T16:45:09.597Z,64.11
2023-06-09T16:47:36.332Z,62.85
2023-06-09T16:50:02.903Z,64.00
2023-06-09T16:52:29.469Z,63.22
2023-06-09T16:54:55.967Z,63.90
2023-06-09T16:57:22.494Z,64.61
2023-06-09T16:59:48.947Z,64.93
2023-06-09T17:02:15.485Z,87.82
2023-06-09T17:04:42.065Z,116.36
2023-06-09T17:07:08.604Z,139.76
2023-06-09T17:09:35.161Z,153.20
2023-06-09T17:12:01.709Z,159.96
2023-06-09T17:14:28.361Z,157.58
2023-06-09T17:16:54.928Z,161.90
2023-06-09T17:19:21.426Z,159.51
2023-06-09T17:21:47.943Z,151.89
2023-06-09T17:24:14.681Z,147.10
2023-06-09T17:26:44.386Z,141.49
2023-06-09T17:29:10.878Z,142.05
2023-06-09T17:31:37.422Z,141.51
2023-06-09T17:34:04.045Z,135.34
2023-06-09T17:36:30.697Z,130.84
2023-06-09T17:38:57.251Z,128.03
2023-06-09T17:41:23.762Z,117.32
2023-06-09T17:43:50.365Z,123.79
2023-06-09T17:46:17.000Z,121.57
2023-06-09T17:48:43.872Z,120.92
2023-06-09T17:51:10.451Z,116.54
2023-06-09T17:53:36.946Z,116.72
2023-06-09T17:56:03.521Z,112.96
2023-06-09T17:58:30.092Z,112.60
2023-06-09T18:00:56.788Z,107.40
2023-06-09T18:03:23.325Z,105.57
2023-06-09T18:08:16.443Z,102.36
2023-06-09T18:10:42.962Z,100.79
2023-06-09T18:13:09.508Z,101.00
2023-06-09T18:15:36.038Z,105.60
2023-06-09T18:18:02.661Z,99.44
2023-06-09T18:20:29.179Z,103.04
2023-06-09T18:22:55.700Z,100.75
2023-06-09T18:25:22.274Z,99.82
2023-06-09T18:27:48.914Z,96.88
2023-06-09T18:30:15.428Z,99.65
2023-06-09T18:32:44.864Z,94.50
2023-06-09T18:35:11.484Z,96.16
2023-06-09T18:37:37.972Z,97.47
2023-06-09T18:40:04.583Z,95.92
2023-06-09T18:42:33.169Z,96.54
2023-06-09T18:45:00.250Z,97.66
2023-06-09T18:47:27.418Z,92.94
2023-06-09T18:49:53.930Z,92.39
2023-06-09T18:52:20.506Z,90.46
2023-06-09T18:54:47.155Z,87.13
2023-06-09T18:57:13.671Z,94.03
2023-06-09T18:59:40.207Z,91.94
2023-06-09T19:02:06.769Z,86.11
2023-06-09T19:04:33.332Z,87.31
2023-06-09T19:06:59.953Z,91.55
2023-06-09T19:09:26.501Z,88.70
2023-06-09T19:11:53.132Z,87.69
2023-06-09T19:14:19.640Z,88.66
2023-06-09T19:16:46.127Z,89.04
2023-06-09T19:19:12.724Z,89.06
2023-06-09T19:21:39.382Z,88.48
2023-06-09T19:24:05.971Z,84.87
2023-06-09T19:26:32.575Z,86.63
2023-06-09T19:28:59.162Z,88.07
2023-06-09T19:31:25.774Z,83.14
2023-06-09T19:33:52.363Z,84.75
2023-06-09T19:36:18.901Z,85.08
2023-06-09T19:38:45.520Z,83.36
2023-06-09T19:41:12.199Z,84.90
2023-06-09T19:43:39.115Z,78.51
2023-06-09T19:46:06.037Z,81.60
2023-06-09T19:48:32.690Z,78.35
2023-06-09T19:50:59.213Z,84.27
2023-06-09T19:53:25.810Z,80.85
2023-06-09T19:55:52.434Z,78.87
2023-06-09T19:58:19.046Z,77.13
2023-06-09T20:00:48.448Z,78.13
2023-06-09T20:03:17.018Z,76.31
2023-06-09T20:05:43.695Z,76.44
2023-06-09T20:08:10.252Z,75.78
2023-06-09T20:10:39.842Z,75.51
2023-06-09T20:13:06.456Z,78.53
2023-06-09T20:15:33.069Z,77.10
2023-06-09T20:17:59.718Z,76.52
2023-06-09T20:20:26.302Z,76.17
2023-06-09T20:22:52.776Z,78.07
2023-06-09T20:25:19.345Z,75.71
2023-06-09T20:27:45.949Z,77.71
2023-06-09T20:30:12.538Z,73.22
2023-06-09T20:32:40.535Z,71.72
2023-06-09T20:35:07.465Z,71.90
2023-06-09T20:37:34.449Z,73.41
2023-06-09T20:40:00.971Z,76.35
2023-06-09T20:42:30.708Z,73.54
2023-06-09T20:44:57.215Z,72.23
2023-06-09T20:47:23.830Z,72.90
2023-06-09T20:49:50.514Z,72.81
2023-06-09T20:52:17.075Z,72.88
2023-06-09T20:54:43.745Z,74.57
2023-06-09T20:57:10.363Z,70.90
2023-06-09T20:59:36.904Z,69.07
2023-06-09T21:02:03.537Z,71.45
2023-06-09T21:04:30.233Z,72.84
2023-06-09T21:06:56.911Z,76.30
2023-06-09T21:09:23.469Z,70.30
2023-06-09T21:11:53.015Z,69.79
2023-06-09T21:14:19.621Z,70.35
2023-06-09T21:16:46.295Z,70.19
2023-06-09T21:19:15.670Z,70.09
2023-06-09T21:21:42.314Z,71.94
2023-06-09T21:24:08.870Z,71.89
2023-06-09T21:26:35.527Z,70.70
2023-06-09T21:29:02.080Z,71.50
2023-06-09T21:31:28.653Z,72.15
2023-06-09T21:33:55.571Z,69.30
2023-06-09T21:36:22.186Z,70.82
2023-06-09T21:38:48.706Z,70.99
2023-06-09T21:41:15.272Z,71.36
2023-06-09T21:43:41.834Z,70.63
2023-06-09T21:46:08.450Z,68.24
2023-06-09T21:48:35.088Z,71.19
2023-06-09T21:51:01.655Z,67.97
2023-06-09T21:53:28.201Z,69.94
2023-06-09T21:55:54.755Z,71.80
2023-06-09T21:58:21.289Z,69.92
2023-06-09T22:00:47.932Z,69.06
2023-06-09T22:03:14.518Z,69.12
